sensor_id;sensor_type;location;lat;lon;timestamp;P1;durP1;ratioP1;P2;durP2;ratioP2
64502;SDS011;50971;51.940;21.258;2023-11-22T00:19:09;9.60;;;5.70;;
64502;SDS011;50971;51.940;21.258;2023-11-22T00:29:11;6.60;;;4.60;;
64502;SDS011;50971;51.940;21.258;2023-11-22T00:39:13;6.00;;;3.80;;
64502;SDS011;50971;51.940;21.258;2023-11-22T00:49:15;7.10;;;4.00;;
64502;SDS011;50971;51.940;21.258;2023-11-22T00:59:16;6.80;;;4.10;;
64502;SDS011;50971;51.940;21.258;2023-11-22T01:09:19;6.50;;;3.50;;
64502;SDS011;50971;51.940;21.258;2023-11-22T01:29:22;6.00;;;2.70;;
64502;SDS011;50971;51.940;21.258;2023-11-22T01:39:25;6.00;;;3.50;;
64502;SDS011;50971;51.940;21.258;2023-11-22T01:49:27;10.00;;;3.70;;
64502;SDS011;50971;51.940;21.258;2023-11-22T01:59:29;3.70;;;2.50;;
64502;SDS011;50971;51.940;21.258;2023-11-22T02:09:33;5.00;;;2.90;;
64502;SDS011;50971;51.940;21.258;2023-11-22T02:19:35;6.50;;;3.50;;
64502;SDS011;50971;51.940;21.258;2023-11-22T02:29:38;5.20;;;3.10;;
64502;SDS011;50971;51.940;21.258;2023-11-22T02:50:08;5.60;;;3.70;;
64502;SDS011;50971;51.940;21.258;2023-11-22T03:00:11;5.00;;;2.70;;
64502;SDS011;50971;51.940;21.258;2023-11-22T03:10:17;4.10;;;2.30;;
64502;SDS011;50971;51.940;21.258;2023-11-22T03:20:20;3.50;;;2.40;;
64502;SDS011;50971;51.940;21.258;2023-11-22T03:40:23;5.70;;;2.90;;
64502;SDS011;50971;51.940;21.258;2023-11-22T03:50:25;4.70;;;3.30;;
64502;SDS011;50971;51.940;21.258;2023-11-22T04:00:27;3.30;;;2.30;;
64502;SDS011;50971;51.940;21.258;2023-11-22T04:10:29;5.20;;;2.70;;
64502;SDS011;50971;51.940;21.258;2023-11-22T04:20:32;3.10;;;2.50;;
64502;SDS011;50971;51.940;21.258;2023-11-22T04:30:33;4.10;;;3.10;;
64502;SDS011;50971;51.940;21.258;2023-11-22T04:50:37;4.00;;;2.50;;
64502;SDS011;50971;51.940;21.258;2023-11-22T05:00:38;7.10;;;3.90;;
64502;SDS011;50971;51.940;21.258;2023-11-22T05:10:40;5.40;;;2.90;;
64502;SDS011;50971;51.940;21.258;2023-11-22T05:20:42;5.00;;;2.70;;
64502;SDS011;50971;51.940;21.258;2023-11-22T05:30:44;4.00;;;2.40;;
64502;SDS011;50971;51.940;21.258;2023-11-22T05:40:46;3.20;;;2.20;;
64502;SDS011;50971;51.940;21.258;2023-11-22T05:50:48;10.40;;;5.30;;
64502;SDS011;50971;51.940;21.258;2023-11-22T06:00:50;7.50;;;4.30;;
64502;SDS011;50971;51.940;21.258;2023-11-22T06:10:52;4.60;;;3.10;;
64502;SDS011;50971;51.940;21.258;2023-11-22T06:20:54;4.80;;;3.20;;
64502;SDS011;50971;51.940;21.258;2023-11-22T06:30:56;3.50;;;2.00;;
64502;SDS011;50971;51.940;21.258;2023-11-22T06:40:58;4.80;;;2.70;;
64502;SDS011;50971;51.940;21.258;2023-11-22T06:50:59;3.00;;;2.40;;
64502;SDS011;50971;51.940;21.258;2023-11-22T07:01:02;5.80;;;3.20;;
64502;SDS011;50971;51.940;21.258;2023-11-22T07:11:04;7.70;;;4.30;;
64502;SDS011;50971;51.940;21.258;2023-11-22T07:21:07;6.20;;;3.50;;
64502;SDS011;50971;51.940;21.258;2023-11-22T07:41:12;5.80;;;4.50;;
64502;SDS011;50971;51.940;21.258;2023-11-22T07:51:14;5.60;;;3.90;;
64502;SDS011;50971;51.940;21.258;2023-11-22T08:01:19;6.80;;;4.10;;
64502;SDS011;50971;51.940;21.258;2023-11-22T08:11:21;5.60;;;3.70;;
64502;SDS011;50971;51.940;21.258;2023-11-22T08:21:23;6.70;;;3.30;;
64502;SDS011;50971;51.940;21.258;2023-11-22T08:31:26;7.40;;;3.30;;
64502;SDS011;50971;51.940;21.258;2023-11-22T08:41:28;6.00;;;2.10;;
64502;SDS011;50971;51.940;21.258;2023-11-22T08:51:31;4.40;;;2.60;;
64502;SDS011;50971;51.940;21.258;2023-11-22T09:01:35;4.70;;;2.90;;
64502;SDS011;50971;51.940;21.258;2023-11-22T09:11:37;5.30;;;3.10;;
64502;SDS011;50971;51.940;21.258;2023-11-22T09:21:39;5.30;;;3.20;;
64502;SDS011;50971;51.940;21.258;2023-11-22T09:31:41;6.90;;;3.50;;
64502;SDS011;50971;51.940;21.258;2023-11-22T09:41:47;4.50;;;2.40;;
64502;SDS011;50971;51.940;21.258;2023-11-22T09:51:54;3.60;;;2.20;;
64502;SDS011;50971;51.940;21.258;2023-11-22T10:01:59;3.90;;;2.60;;
64502;SDS011;50971;51.940;21.258;2023-11-22T10:12:01;6.10;;;3.00;;
64502;SDS011;50971;51.940;21.258;2023-11-22T10:22:04;4.60;;;2.60;;
64502;SDS011;50971;51.940;21.258;2023-11-22T10:32:08;4.20;;;2.70;;
64502;SDS011;50971;51.940;21.258;2023-11-22T10:42:10;5.80;;;2.90;;
64502;SDS011;50971;51.940;21.258;2023-11-22T10:52:13;5.80;;;2.60;;
64502;SDS011;50971;51.940;21.258;2023-11-22T11:02:16;3.50;;;2.20;;
64502;SDS011;50971;51.940;21.258;2023-11-22T11:12:21;4.00;;;2.30;;
64502;SDS011;50971;51.940;21.258;2023-11-22T11:22:23;5.00;;;3.20;;
64502;SDS011;50971;51.940;21.258;2023-11-22T11:32:32;2.70;;;2.00;;
64502;SDS011;50971;51.940;21.258;2023-11-22T11:42:34;3.70;;;2.30;;
64502;SDS011;50971;51.940;21.258;2023-11-22T11:52:38;5.70;;;2.90;;
64502;SDS011;50971;51.940;21.258;2023-11-22T12:02:40;2.90;;;1.80;;
64502;SDS011;50971;51.940;21.258;2023-11-22T12:12:43;3.00;;;2.00;;
64502;SDS011;50971;51.940;21.258;2023-11-22T12:22:47;4.60;;;2.30;;
64502;SDS011;50971;51.940;21.258;2023-11-22T12:32:50;4.60;;;2.00;;
64502;SDS011;50971;51.940;21.258;2023-11-22T12:42:52;3.10;;;1.70;;
64502;SDS011;50971;51.940;21.258;2023-11-22T12:52:54;5.00;;;2.80;;
64502;SDS011;50971;51.940;21.258;2023-11-22T13:02:57;4.50;;;2.70;;
64502;SDS011;50971;51.940;21.258;2023-11-22T13:13:04;1.60;;;1.10;;
64502;SDS011;50971;51.940;21.258;2023-11-22T13:23:10;2.30;;;1.80;;
64502;SDS011;50971;51.940;21.258;2023-11-22T13:33:15;3.40;;;2.00;;
64502;SDS011;50971;51.940;21.258;2023-11-22T13:43:17;2.30;;;1.40;;
64502;SDS011;50971;51.940;21.258;2023-11-22T13:53:20;2.60;;;1.90;;
64502;SDS011;50971;51.940;21.258;2023-11-22T14:03:24;3.40;;;1.80;;
64502;SDS011;50971;51.940;21.258;2023-11-22T14:13:26;5.10;;;2.20;;
64502;SDS011;50971;51.940;21.258;2023-11-22T14:23:28;3.90;;;2.80;;
64502;SDS011;50971;51.940;21.258;2023-11-22T14:33:29;6.70;;;2.90;;
64502;SDS011;50971;51.940;21.258;2023-11-22T14:43:33;10.80;;;4.50;;
64502;SDS011;50971;51.940;21.258;2023-11-22T14:53:35;13.80;;;5.30;;
64502;SDS011;50971;51.940;21.258;2023-11-22T15:13:39;32.00;;;10.90;;
64502;SDS011;50971;51.940;21.258;2023-11-22T15:23:41;26.70;;;9.20;;
64502;SDS011;50971;51.940;21.258;2023-11-22T15:33:43;15.10;;;6.80;;
64502;SDS011;50971;51.940;21.258;2023-11-22T15:43:46;24.90;;;11.40;;
64502;SDS011;50971;51.940;21.258;2023-11-22T15:53:48;12.20;;;7.00;;
64502;SDS011;50971;51.940;21.258;2023-11-22T16:03:50;15.10;;;7.50;;
64502;SDS011;50971;51.940;21.258;2023-11-22T16:13:54;20.60;;;9.00;;
64502;SDS011;50971;51.940;21.258;2023-11-22T16:23:56;11.10;;;5.30;;
64502;SDS011;50971;51.940;21.258;2023-11-22T16:34:51;16.20;;;7.00;;
64502;SDS011;50971;51.940;21.258;2023-11-22T16:44:53;19.70;;;7.50;;
64502;SDS011;50971;51.940;21.258;2023-11-22T16:55:04;25.00;;;9.80;;
64502;SDS011;50971;51.940;21.258;2023-11-22T17:05:39;32.70;;;12.40;;
64502;SDS011;50971;51.940;21.258;2023-11-22T17:15:43;15.00;;;7.70;;
64502;SDS011;50971;51.940;21.258;2023-11-22T17:25:46;13.40;;;7.60;;
64502;SDS011;50971;51.940;21.258;2023-11-22T17:45:56;9.70;;;5.90;;
64502;SDS011;50971;51.940;21.258;2023-11-22T17:55:59;9.30;;;4.90;;
64502;SDS011;50971;51.940;21.258;2023-11-22T18:06:01;9.60;;;5.40;;
64502;SDS011;50971;51.940;21.258;2023-11-22T18:16:05;7.70;;;4.20;;
64502;SDS011;50971;51.940;21.258;2023-11-22T18:26:06;11.10;;;6.40;;
64502;SDS011;50971;51.940;21.258;2023-11-22T18:36:08;8.30;;;5.80;;
64502;SDS011;50971;51.940;21.258;2023-11-22T18:46:12;39.10;;;12.40;;
64502;SDS011;50971;51.940;21.258;2023-11-22T18:56:14;40.50;;;12.80;;
64502;SDS011;50971;51.940;21.258;2023-11-22T19:06:16;48.30;;;15.60;;
64502;SDS011;50971;51.940;21.258;2023-11-22T19:16:20;20.00;;;11.80;;
64502;SDS011;50971;51.940;21.258;2023-11-22T19:26:24;18.50;;;11.10;;
64502;SDS011;50971;51.940;21.258;2023-11-22T19:36:27;22.00;;;10.70;;
64502;SDS011;50971;51.940;21.258;2023-11-22T19:46:33;7.20;;;3.30;;
64502;SDS011;50971;51.940;21.258;2023-11-22T19:56:35;19.30;;;9.30;;
64502;SDS011;50971;51.940;21.258;2023-11-22T20:06:37;26.10;;;10.60;;
64502;SDS011;50971;51.940;21.258;2023-11-22T20:16:38;17.10;;;7.20;;
64502;SDS011;50971;51.940;21.258;2023-11-22T20:26:43;14.10;;;8.20;;
64502;SDS011;50971;51.940;21.258;2023-11-22T20:36:45;13.40;;;6.70;;
64502;SDS011;50971;51.940;21.258;2023-11-22T20:46:47;24.70;;;8.60;;
64502;SDS011;50971;51.940;21.258;2023-11-22T20:56:50;28.60;;;10.00;;
64502;SDS011;50971;51.940;21.258;2023-11-22T21:06:52;17.90;;;9.10;;
64502;SDS011;50971;51.940;21.258;2023-11-22T21:27:11;12.80;;;7.00;;
64502;SDS011;50971;51.940;21.258;2023-11-22T21:37:12;6.00;;;3.00;;
64502;SDS011;50971;51.940;21.258;2023-11-22T21:47:14;11.40;;;6.40;;
64502;SDS011;50971;51.940;21.258;2023-11-22T21:57:16;18.50;;;8.00;;
64502;SDS011;50971;51.940;21.258;2023-11-22T22:07:18;21.60;;;7.90;;
64502;SDS011;50971;51.940;21.258;2023-11-22T22:17:20;27.60;;;9.80;;
64502;SDS011;50971;51.940;21.258;2023-11-22T22:27:21;18.50;;;8.30;;
64502;SDS011;50971;51.940;21.258;2023-11-22T22:37:23;13.20;;;6.40;;
64502;SDS011;50971;51.940;21.258;2023-11-22T22:47:25;13.10;;;7.30;;
64502;SDS011;50971;51.940;21.258;2023-11-22T22:57:27;11.00;;;6.30;;
64502;SDS011;50971;51.940;21.258;2023-11-22T23:07:29;12.90;;;7.10;;
64502;SDS011;50971;51.940;21.258;2023-11-22T23:17:31;18.10;;;7.50;;
64502;SDS011;50971;51.940;21.258;2023-11-22T23:27:33;17.80;;;7.30;;
64502;SDS011;50971;51.940;21.258;2023-11-22T23:37:38;11.40;;;5.70;;
64502;SDS011;50971;51.940;21.258;2023-11-22T23:47:41;11.20;;;5.40;;
64502;SDS011;50971;51.940;21.258;2023-11-22T23:57:43;12.60;;;5.60;;
